createdAt,value
2018-07-16T00:00:41.564Z,2.45
2018-07-16T00:03:10.487Z,2.60
2018-07-16T00:05:39.522Z,2.67
2018-07-16T00:08:08.516Z,2.52
2018-07-16T00:10:37.755Z,2.80
2018-07-16T00:13:07.158Z,2.67
2018-07-16T00:15:36.238Z,2.85
2018-07-16T00:18:05.598Z,2.60
2018-07-16T00:20:34.485Z,2.72
2018-07-16T00:23:03.764Z,2.87
2018-07-16T00:25:32.908Z,3.00
2018-07-16T00:28:01.866Z,2.83
2018-07-16T00:30:32.332Z,2.87
2018-07-16T00:33:01.241Z,2.80
2018-07-16T00:35:30.131Z,2.72
2018-07-16T00:37:59.030Z,3.00
2018-07-16T00:40:27.937Z,3.02
2018-07-16T00:42:56.855Z,2.50
2018-07-16T00:45:26.133Z,2.83
2018-07-16T00:47:55.055Z,2.90
2018-07-16T00:50:23.963Z,2.83
2018-07-16T00:52:52.867Z,2.67
2018-07-16T00:55:21.773Z,2.75
2018-07-16T00:57:50.709Z,2.65
2018-07-16T01:00:19.637Z,2.60
2018-07-16T01:02:48.536Z,2.72
2018-07-16T01:05:17.803Z,2.90
2018-07-16T01:07:46.675Z,3.15
2018-07-16T01:10:15.933Z,2.85
2018-07-16T01:12:44.787Z,3.12
2018-07-16T01:15:13.700Z,3.10
2018-07-16T01:17:42.667Z,3.05
2018-07-16T01:20:11.563Z,3.10
2018-07-16T01:22:40.575Z,3.27
2018-07-16T01:25:09.541Z,3.10
2018-07-16T01:27:38.455Z,2.72
2018-07-16T01:30:07.360Z,2.90
2018-07-16T01:32:36.288Z,2.92
2018-07-16T01:35:05.200Z,3.37
2018-07-16T01:37:34.197Z,3.20
2018-07-16T01:40:03.105Z,3.20
2018-07-16T01:42:32.011Z,3.10
2018-07-16T01:45:00.983Z,2.95
2018-07-16T01:47:29.893Z,3.12
2018-07-16T01:49:58.951Z,2.90
2018-07-16T01:52:28.031Z,2.98
2018-07-16T01:54:56.920Z,2.90
2018-07-16T01:57:25.856Z,3.42
2018-07-16T01:59:54.773Z,3.42
2018-07-16T02:02:23.700Z,3.62
2018-07-16T02:04:52.687Z,3.50
2018-07-16T02:07:21.601Z,3.80
2018-07-16T02:09:50.695Z,3.60
2018-07-16T02:12:19.593Z,3.87
2018-07-16T02:14:48.506Z,3.65
2018-07-16T02:17:17.594Z,3.80
2018-07-16T02:19:46.548Z,3.65
2018-07-16T02:22:15.454Z,3.17
2018-07-16T02:24:44.449Z,3.40
2018-07-16T02:27:13.361Z,3.60
2018-07-16T02:29:42.629Z,3.35
2018-07-16T02:32:11.846Z,3.33
2018-07-16T02:34:40.938Z,3.17
2018-07-16T02:37:09.848Z,3.30
2018-07-16T02:39:38.778Z,3.52
2018-07-16T02:42:08.655Z,3.62
2018-07-16T02:44:38.563Z,3.92
2018-07-16T02:47:07.483Z,3.22
2018-07-16T02:49:36.397Z,3.52
2018-07-16T02:52:05.917Z,3.75
2018-07-16T02:54:35.026Z,3.80
2018-07-16T02:57:03.947Z,3.80
2018-07-16T02:59:32.855Z,4.08
2018-07-16T03:02:01.774Z,3.52
2018-07-16T03:04:30.669Z,3.70
2018-07-16T03:06:59.570Z,4.10
2018-07-16T03:09:28.824Z,3.70
2018-07-16T03:11:58.137Z,3.33
2018-07-16T03:14:27.062Z,3.87
2018-07-16T03:16:55.970Z,4.40
2018-07-16T03:19:24.937Z,4.00
2018-07-16T03:21:53.862Z,4.00
2018-07-16T03:24:22.798Z,4.03
2018-07-16T03:26:51.693Z,4.05
2018-07-16T03:29:21.248Z,4.10
2018-07-16T03:31:50.328Z,4.10
2018-07-16T03:34:19.219Z,4.78
2018-07-16T03:36:48.212Z,4.37
2018-07-16T03:39:17.101Z,4.65
2018-07-16T03:41:46.022Z,4.15
2018-07-16T03:44:14.956Z,4.00
2018-07-16T03:46:43.895Z,3.80
2018-07-16T03:49:12.791Z,3.90
2018-07-16T03:51:41.744Z,4.35
2018-07-16T03:54:10.700Z,4.30
2018-07-16T03:56:39.602Z,4.10
2018-07-16T03:59:09.266Z,3.95
2018-07-16T04:01:38.263Z,3.75
2018-07-16T04:04:07.702Z,3.90
2018-07-16T04:06:36.621Z,4.10
2018-07-16T04:09:06.462Z,4.30
2018-07-16T04:11:35.382Z,4.70
2018-07-16T04:14:04.752Z,5.20
2018-07-16T04:16:33.666Z,4.80
2018-07-16T04:19:02.658Z,4.65
2018-07-16T04:21:31.566Z,4.20
2018-07-16T04:24:00.462Z,4.35
2018-07-16T04:26:29.487Z,4.70
2018-07-16T04:28:58.370Z,4.87
2018-07-16T04:31:27.316Z,4.90
2018-07-16T04:33:56.004Z,4.50
2018-07-16T04:36:24.952Z,5.15
2018-07-16T04:38:53.966Z,4.65
2018-07-16T04:41:23.272Z,4.45
2018-07-16T04:43:52.191Z,5.80
2018-07-16T04:46:21.091Z,4.92
2018-07-16T04:48:49.994Z,5.60
2018-07-16T04:51:18.928Z,5.20
2018-07-16T04:53:47.834Z,4.60
2018-07-16T04:56:16.885Z,5.12
2018-07-16T04:58:45.981Z,4.97
2018-07-16T05:01:14.898Z,5.22
2018-07-16T05:03:43.939Z,5.10
2018-07-16T05:06:12.872Z,4.87
2018-07-16T05:08:41.761Z,5.42
2018-07-16T05:11:10.783Z,4.83
2018-07-16T05:13:39.807Z,5.40
2018-07-16T05:16:09.097Z,5.03
2018-07-16T05:18:38.048Z,4.72
2018-07-16T05:21:07.079Z,5.03
2018-07-16T05:23:35.985Z,5.20
2018-07-16T05:26:05.255Z,4.55
2018-07-16T05:28:34.143Z,4.90
2018-07-16T05:31:03.175Z,4.03
2018-07-16T05:33:32.074Z,4.22
2018-07-16T05:36:01.105Z,4.90
2018-07-16T05:38:30.100Z,5.08
2018-07-16T05:40:59.011Z,4.58
2018-07-16T05:43:27.945Z,4.70
2018-07-16T05:45:56.898Z,5.20
2018-07-16T05:48:25.890Z,5.58
2018-07-16T05:50:54.509Z,5.33
2018-07-16T05:53:23.432Z,4.67
2018-07-16T05:55:52.570Z,4.67
2018-07-16T05:58:21.562Z,5.05
2018-07-16T06:00:50.726Z,5.08
2018-07-16T06:03:19.964Z,4.70
2018-07-16T06:05:48.929Z,5.10
2018-07-16T06:08:18.564Z,4.47
2018-07-16T06:10:47.498Z,4.40
2018-07-16T06:13:16.459Z,4.90
2018-07-16T06:15:45.396Z,4.03
2018-07-16T06:18:14.471Z,4.90
2018-07-16T06:20:43.490Z,4.12
2018-07-16T06:23:12.390Z,4.10
2018-07-16T06:25:41.394Z,4.47
2018-07-16T06:28:10.366Z,4.60
2018-07-16T06:30:39.636Z,4.53
2018-07-16T06:33:09.005Z,4.12
2018-07-16T06:35:37.919Z,4.30
2018-07-16T06:38:06.885Z,3.75
2018-07-16T06:40:35.948Z,3.60
2018-07-16T06:43:04.982Z,3.60
2018-07-16T06:45:34.027Z,4.17
2018-07-16T06:48:02.947Z,4.37
2018-07-16T06:50:31.907Z,5.08
2018-07-16T06:53:00.829Z,4.25
2018-07-16T06:55:29.901Z,3.77
2018-07-16T06:57:58.838Z,3.75
2018-07-16T07:00:27.977Z,3.92
2018-07-16T07:02:56.965Z,3.90
2018-07-16T07:05:25.872Z,3.40
2018-07-16T07:07:54.995Z,4.22
2018-07-16T07:10:24.227Z,4.00
2018-07-16T07:12:53.152Z,3.50
2018-07-16T07:15:22.456Z,3.50
2018-07-16T07:17:51.596Z,3.27
2018-07-16T07:20:20.956Z,3.37
2018-07-16T07:22:54.604Z,3.17
2018-07-16T07:25:23.671Z,3.72
2018-07-16T07:27:53.288Z,3.22
2018-07-16T07:30:22.620Z,3.30
2018-07-16T07:32:51.796Z,3.15
2018-07-16T07:35:21.162Z,3.27
2018-07-16T07:37:50.196Z,2.87
2018-07-16T07:40:19.119Z,3.37
2018-07-16T07:42:48.145Z,3.00
2018-07-16T07:45:17.196Z,2.87
2018-07-16T07:47:46.468Z,2.92
2018-07-16T07:50:15.716Z,2.98
2018-07-16T07:52:45.047Z,2.80
2018-07-16T07:55:14.490Z,2.98
2018-07-16T07:57:43.124Z,3.15
2018-07-16T08:00:12.094Z,2.80
2018-07-16T08:02:41.044Z,2.87
2018-07-16T08:05:10.019Z,2.77
2018-07-16T08:07:39.417Z,2.55
2018-07-16T08:10:08.029Z,3.12
2018-07-16T08:12:37.026Z,2.40
2018-07-16T08:15:05.851Z,2.60
2018-07-16T08:17:35.065Z,2.60
2018-07-16T08:20:04.759Z,2.52
2018-07-16T08:22:33.767Z,2.60
2018-07-16T08:25:02.859Z,2.60
2018-07-16T08:27:32.093Z,1.87
2018-07-16T08:30:01.207Z,2.08
2018-07-16T08:32:30.045Z,2.13
2018-07-16T08:34:59.514Z,2.52
2018-07-16T08:37:28.762Z,2.50
2018-07-16T08:39:57.987Z,2.63
2018-07-16T08:42:27.287Z,2.50
2018-07-16T08:44:56.233Z,1.85
2018-07-16T08:47:25.062Z,2.30
2018-07-16T08:49:54.345Z,2.22
2018-07-16T08:52:23.656Z,2.37
2018-07-16T08:54:52.296Z,2.70
2018-07-16T08:57:21.333Z,2.75
2018-07-16T08:59:50.672Z,2.40
2018-07-16T09:02:19.951Z,2.10
2018-07-16T09:04:48.607Z,2.70
2018-07-16T09:07:17.401Z,2.47
2018-07-16T09:09:46.504Z,2.77
2018-07-16T09:12:15.129Z,2.50
2018-07-16T09:14:43.812Z,2.43
2018-07-16T09:17:12.843Z,2.10
2018-07-16T09:19:41.443Z,2.20
2018-07-16T09:22:10.143Z,2.70
2018-07-16T09:24:38.929Z,2.30
2018-07-16T09:27:07.933Z,2.20
2018-07-16T09:29:36.936Z,4.07
2018-07-16T09:32:05.572Z,2.30
2018-07-16T09:34:34.356Z,2.30
2018-07-16T09:37:03.052Z,2.23
2018-07-16T09:39:31.796Z,2.90
2018-07-16T09:42:00.530Z,2.50
2018-07-16T09:44:29.198Z,2.30
2018-07-16T09:46:58.238Z,4.10
2018-07-16T09:49:27.526Z,9.78
2018-07-16T09:51:56.145Z,2.40
2018-07-16T09:54:24.807Z,2.30
2018-07-16T09:56:53.442Z,2.37
2018-07-16T09:59:22.807Z,2.20
2018-07-16T10:01:56.665Z,2.20
2018-07-16T10:04:25.410Z,2.30
2018-07-16T10:06:54.108Z,3.17
2018-07-16T10:09:22.946Z,2.00
2018-07-16T10:11:51.778Z,2.20
2018-07-16T10:14:20.388Z,2.40
2018-07-16T10:16:49.232Z,2.50
2018-07-16T10:19:17.863Z,2.50
2018-07-16T10:21:46.592Z,2.37
2018-07-16T10:24:15.235Z,2.40
2018-07-16T10:26:43.851Z,2.40
2018-07-16T10:29:12.648Z,2.60
2018-07-16T10:31:41.623Z,2.50
2018-07-16T10:34:10.053Z,2.47
2018-07-16T10:36:38.737Z,1.90
2018-07-16T10:39:08.316Z,2.97
2018-07-16T10:41:37.958Z,2.80
2018-07-16T10:44:07.414Z,2.50
2018-07-16T10:46:36.032Z,2.43
2018-07-16T10:49:05.097Z,2.33
2018-07-16T10:51:33.948Z,2.50
2018-07-16T10:54:02.751Z,2.27
2018-07-16T10:56:31.947Z,2.60
2018-07-16T10:59:00.631Z,2.53
2018-07-16T11:01:29.280Z,2.40
2018-07-16T11:03:57.929Z,2.90
2018-07-16T11:06:26.546Z,2.57
2018-07-16T11:08:55.436Z,4.23
2018-07-16T11:11:24.091Z,2.50
2018-07-16T11:13:52.723Z,3.00
2018-07-16T11:16:21.432Z,2.63
2018-07-16T11:18:50.116Z,2.30
2018-07-16T11:21:18.803Z,2.30
2018-07-16T11:23:47.801Z,2.40
2018-07-16T11:26:16.401Z,2.60
2018-07-16T11:28:45.054Z,2.40
2018-07-16T11:31:13.752Z,2.40
2018-07-16T11:33:42.622Z,2.40
2018-07-16T11:36:11.241Z,2.53
2018-07-16T11:38:39.874Z,2.60
2018-07-16T11:41:08.506Z,2.90
2018-07-16T11:43:37.139Z,2.70
2018-07-16T11:46:05.834Z,2.60
2018-07-16T11:48:34.684Z,2.87
2018-07-16T11:51:03.332Z,4.30
2018-07-16T11:53:32.025Z,2.60
2018-07-16T11:56:00.791Z,2.60
2018-07-16T11:58:29.402Z,2.50
2018-07-16T12:00:58.023Z,2.67
2018-07-16T12:03:26.715Z,2.87
2018-07-16T12:05:55.527Z,2.53
2018-07-16T12:08:24.172Z,2.53
2018-07-16T12:10:53.170Z,2.70
2018-07-16T12:13:21.812Z,3.20
2018-07-16T12:15:50.504Z,2.50
2018-07-16T12:18:19.139Z,2.87
2018-07-16T12:20:47.804Z,2.67
2018-07-16T12:23:16.485Z,2.60
2018-07-16T12:25:45.160Z,2.60
2018-07-16T12:28:14.010Z,2.70
2018-07-16T12:30:42.835Z,2.33
2018-07-16T12:33:11.485Z,2.30
2018-07-16T12:35:40.293Z,2.43
2018-07-16T12:38:08.876Z,2.30
2018-07-16T12:40:37.585Z,2.70
2018-07-16T12:43:06.243Z,2.60
2018-07-16T12:45:34.937Z,2.60
2018-07-16T12:48:03.937Z,2.60
2018-07-16T12:50:32.698Z,2.33
2018-07-16T12:53:01.317Z,2.10
2018-07-16T12:55:30.036Z,2.20
2018-07-16T12:57:58.807Z,2.20
2018-07-16T13:00:27.486Z,2.13
2018-07-16T13:02:56.270Z,2.10
2018-07-16T13:05:24.933Z,2.60
2018-07-16T13:07:53.569Z,2.03
2018-07-16T13:10:22.221Z,2.40
2018-07-16T13:12:50.835Z,2.47
2018-07-16T13:15:19.510Z,3.73
2018-07-16T13:17:48.521Z,2.33
2018-07-16T13:20:17.185Z,2.40
2018-07-16T13:22:46.044Z,2.27
2018-07-16T13:25:14.931Z,2.60
2018-07-16T13:27:43.775Z,2.40
2018-07-16T13:30:12.442Z,2.27
2018-07-16T13:32:41.098Z,2.30
2018-07-16T13:35:10.107Z,2.57
2018-07-16T13:37:38.772Z,2.70
2018-07-16T13:40:07.438Z,2.43
2018-07-16T13:42:36.086Z,2.60
2018-07-16T13:45:04.956Z,2.57
2018-07-16T13:47:33.731Z,2.70
2018-07-16T13:50:03.018Z,2.80
2018-07-16T13:52:31.842Z,2.70
2018-07-16T13:55:00.476Z,2.83
2018-07-16T13:57:29.112Z,2.50
2018-07-16T13:59:57.750Z,2.30
2018-07-16T14:02:26.737Z,2.67
2018-07-16T14:04:55.438Z,2.87
2018-07-16T14:07:24.132Z,2.30
2018-07-16T14:09:53.152Z,2.33
2018-07-16T14:12:22.136Z,2.33
2018-07-16T14:14:50.872Z,2.10
2018-07-16T14:17:19.518Z,2.40
2018-07-16T14:19:48.301Z,2.20
2018-07-16T14:22:17.313Z,2.50
2018-07-16T14:24:45.995Z,3.03
2018-07-16T14:27:15.185Z,3.93
2018-07-16T14:29:43.899Z,2.20
2018-07-16T14:32:12.583Z,2.90
2018-07-16T14:34:41.402Z,2.70
2018-07-16T14:37:10.142Z,2.40
2018-07-16T14:39:38.820Z,2.20
2018-07-16T14:42:08.089Z,1.80
2018-07-16T14:44:36.664Z,1.90
2018-07-16T14:47:05.360Z,2.03
2018-07-16T14:49:33.976Z,1.97
2018-07-16T14:52:02.615Z,1.97
2018-07-16T14:54:31.236Z,1.80
2018-07-16T14:56:59.967Z,1.93
2018-07-16T14:59:29.232Z,2.40
2018-07-16T15:01:58.204Z,2.33
2018-07-16T15:04:26.830Z,2.53
2018-07-16T15:06:55.460Z,2.30
2018-07-16T15:09:24.104Z,2.20
2018-07-16T15:11:52.742Z,2.27
2018-07-16T15:14:21.502Z,1.83
2018-07-16T15:16:50.128Z,1.90
2018-07-16T15:19:18.804Z,2.00
2018-07-16T15:21:47.581Z,2.00
2018-07-16T15:24:16.353Z,1.80
2018-07-16T15:26:45.007Z,1.90
2018-07-16T15:29:13.732Z,2.40
2018-07-16T15:31:42.389Z,1.70
2018-07-16T15:34:11.230Z,1.70
2018-07-16T15:36:39.860Z,1.70
2018-07-16T15:39:08.906Z,1.47
2018-07-16T15:41:37.603Z,1.53
2018-07-16T15:44:06.368Z,1.77
2018-07-16T15:46:35.283Z,1.57
2018-07-16T15:49:04.076Z,1.63
2018-07-16T15:51:33.039Z,1.90
2018-07-16T15:54:01.860Z,1.80
2018-07-16T15:56:30.595Z,1.97
2018-07-16T15:58:59.274Z,1.60
2018-07-16T16:01:27.907Z,1.87
2018-07-16T16:03:56.565Z,1.57
2018-07-16T16:06:25.654Z,2.00
2018-07-16T16:08:54.306Z,2.10
2018-07-16T16:11:23.147Z,2.20
2018-07-16T16:13:51.892Z,1.70
2018-07-16T16:16:20.682Z,2.50
2018-07-16T16:18:49.587Z,2.30
2018-07-16T16:21:18.687Z,1.63
2018-07-16T16:23:47.343Z,1.80
2018-07-16T16:26:16.386Z,1.73
2018-07-16T16:28:45.202Z,1.60
2018-07-16T16:31:14.004Z,1.50
2018-07-16T16:33:43.017Z,1.87
2018-07-16T16:36:11.622Z,1.60
2018-07-16T16:38:40.256Z,1.50
2018-07-16T16:41:09.114Z,1.53
2018-07-16T16:43:38.116Z,1.53
2018-07-16T16:46:06.860Z,3.60
2018-07-16T16:48:37.516Z,2.87
2018-07-16T16:51:06.610Z,2.20
2018-07-16T16:53:35.632Z,1.70
2018-07-16T16:56:04.669Z,2.37
2018-07-16T16:58:33.768Z,3.77
2018-07-16T17:01:02.545Z,3.70
2018-07-16T17:03:31.201Z,3.80
2018-07-16T17:06:00.048Z,5.30
2018-07-16T17:08:28.666Z,1.83
2018-07-16T17:10:57.313Z,1.40
2018-07-16T17:13:25.985Z,2.87
2018-07-16T17:15:54.664Z,2.10
2018-07-16T17:18:23.444Z,1.80
2018-07-16T17:20:52.467Z,1.93
2018-07-16T17:23:21.154Z,1.80
2018-07-16T17:25:50.098Z,2.80
2018-07-16T17:28:18.747Z,1.70
2018-07-16T17:30:47.368Z,1.87
2018-07-16T17:33:16.002Z,2.30
2018-07-16T17:35:44.640Z,6.83
2018-07-16T17:38:13.416Z,2.30
2018-07-16T17:40:42.092Z,1.97
2018-07-16T17:43:10.832Z,1.90
2018-07-16T17:45:39.523Z,2.00
2018-07-16T17:48:08.418Z,2.13
2018-07-16T17:50:37.060Z,2.00
2018-07-16T17:53:06.235Z,6.53
2018-07-16T17:55:35.126Z,3.23
2018-07-16T17:58:03.763Z,4.60
2018-07-16T18:00:32.459Z,2.20
2018-07-16T18:03:01.356Z,2.90
2018-07-16T18:05:30.039Z,3.00
2018-07-16T18:07:59.156Z,2.97
2018-07-16T18:10:27.866Z,2.83
2018-07-16T18:12:56.615Z,2.40
2018-07-16T18:15:25.293Z,2.20
2018-07-16T18:17:53.940Z,2.50
2018-07-16T18:20:22.615Z,2.40
2018-07-16T18:22:51.455Z,2.47
2018-07-16T18:25:20.140Z,2.60
2018-07-16T18:27:48.848Z,2.73
2018-07-16T18:30:17.533Z,4.10
2018-07-16T18:32:46.201Z,3.10
2018-07-16T18:35:14.875Z,2.30
2018-07-16T18:37:44.114Z,2.33
2018-07-16T18:40:12.899Z,2.53
2018-07-16T18:42:42.906Z,2.60
2018-07-16T18:45:11.557Z,2.57
2018-07-16T18:47:40.185Z,3.20
2018-07-16T18:50:09.285Z,2.90
2018-07-16T18:52:37.965Z,2.87
2018-07-16T18:55:06.855Z,2.93
2018-07-16T18:57:35.525Z,3.00
2018-07-16T19:00:05.887Z,3.50
2018-07-16T19:02:34.547Z,3.10
2018-07-16T19:05:03.338Z,2.93
2018-07-16T19:07:31.963Z,3.33
2018-07-16T19:10:00.614Z,3.53
2018-07-16T19:12:29.631Z,3.13
2018-07-16T19:14:58.413Z,2.90
2018-07-16T19:17:27.056Z,3.00
2018-07-16T19:19:55.680Z,3.50
2018-07-16T19:22:24.341Z,3.50
2018-07-16T19:24:53.409Z,6.75
2018-07-16T19:27:22.124Z,4.67
2018-07-16T19:29:50.752Z,3.83
2018-07-16T19:32:20.041Z,3.08
2018-07-16T19:34:49.030Z,2.83
2018-07-16T19:37:17.939Z,2.90
2018-07-16T19:39:46.861Z,3.02
2018-07-16T19:42:15.862Z,3.20
2018-07-16T19:44:45.081Z,2.62
2018-07-16T19:47:14.066Z,3.10
2018-07-16T19:49:43.015Z,2.92
2018-07-16T19:52:12.071Z,3.00
2018-07-16T19:54:41.005Z,3.77
2018-07-16T19:57:10.313Z,3.35
2018-07-16T19:59:39.296Z,2.90
2018-07-16T20:02:08.517Z,3.75
2018-07-16T20:04:37.733Z,3.15
2018-07-16T20:07:06.740Z,3.50
2018-07-16T20:09:35.913Z,4.10
2018-07-16T20:12:05.104Z,3.87
2018-07-16T20:14:34.032Z,4.33
2018-07-16T20:17:02.983Z,4.40
2018-07-16T20:19:32.489Z,4.80
2018-07-16T20:22:01.418Z,5.30
2018-07-16T20:24:30.349Z,4.95
2018-07-16T20:26:59.585Z,5.35
2018-07-16T20:29:28.813Z,4.80
2018-07-16T20:31:57.748Z,4.55
2018-07-16T20:34:26.727Z,4.42
2018-07-16T20:36:56.063Z,4.65
2018-07-16T20:39:25.116Z,4.65
2018-07-16T20:41:54.161Z,4.80
2018-07-16T20:44:22.811Z,4.70
2018-07-16T20:46:52.128Z,4.90
2018-07-16T20:49:21.074Z,4.92
2018-07-16T20:51:49.961Z,4.97
2018-07-16T20:54:18.885Z,4.45
2018-07-16T20:56:47.871Z,5.47
2018-07-16T20:59:16.834Z,5.20
2018-07-16T21:01:45.798Z,4.60
2018-07-16T21:04:14.866Z,5.85
2018-07-16T21:06:43.806Z,5.00
2018-07-16T21:09:12.740Z,5.17
2018-07-16T21:11:41.654Z,5.12
2018-07-16T21:14:10.598Z,5.15
2018-07-16T21:16:39.576Z,5.10
2018-07-16T21:19:08.642Z,5.62
2018-07-16T21:21:37.560Z,5.10
2018-07-16T21:24:06.834Z,4.85
2018-07-16T21:26:35.906Z,5.30
2018-07-16T21:29:05.068Z,5.08
2018-07-16T21:31:33.984Z,4.85
2018-07-16T21:34:03.310Z,4.50
2018-07-16T21:36:32.237Z,5.03
2018-07-16T21:39:01.176Z,4.85
2018-07-16T21:41:30.172Z,4.85
2018-07-16T21:43:59.145Z,4.80
2018-07-16T21:46:28.522Z,5.42
2018-07-16T21:48:57.682Z,6.55
2018-07-16T21:51:26.988Z,4.05
2018-07-16T21:53:55.923Z,4.35
2018-07-16T21:56:24.930Z,3.87
2018-07-16T21:58:53.872Z,4.15
2018-07-16T22:01:22.805Z,4.50
2018-07-16T22:03:51.751Z,4.42
2018-07-16T22:06:20.860Z,3.90
2018-07-16T22:08:49.510Z,4.17
2018-07-16T22:11:18.835Z,4.10
2018-07-16T22:13:47.813Z,4.45
2018-07-16T22:16:17.012Z,4.30
2018-07-16T22:18:46.017Z,4.53
2018-07-16T22:21:14.748Z,4.03
2018-07-16T22:23:43.627Z,4.08
2018-07-16T22:26:12.562Z,4.17
2018-07-16T22:28:41.472Z,4.08
2018-07-16T22:31:10.571Z,10.98
2018-07-16T22:33:39.494Z,4.53
2018-07-16T22:36:08.966Z,5.67
2018-07-16T22:38:37.932Z,4.62
2018-07-16T22:41:06.945Z,4.72
2018-07-16T22:43:35.962Z,4.40
2018-07-16T22:46:04.908Z,4.47
2018-07-16T22:48:33.838Z,4.60
2018-07-16T22:51:03.008Z,4.17
2018-07-16T22:53:32.331Z,4.62
2018-07-16T22:56:01.848Z,4.75
2018-07-16T22:58:30.944Z,4.10
2018-07-16T23:00:59.883Z,4.42
2018-07-16T23:03:28.788Z,4.72
2018-07-16T23:05:57.737Z,4.20
2018-07-16T23:08:26.776Z,4.53
2018-07-16T23:10:55.707Z,4.60
2018-07-16T23:13:24.797Z,4.60
2018-07-16T23:15:53.750Z,4.62
2018-07-16T23:18:22.680Z,4.40
2018-07-16T23:20:51.605Z,4.40
2018-07-16T23:23:20.560Z,5.25
2018-07-16T23:25:49.476Z,4.70
2018-07-16T23:28:18.396Z,4.80
2018-07-16T23:30:47.318Z,4.80
2018-07-16T23:33:16.274Z,4.87
2018-07-16T23:35:45.176Z,4.30
2018-07-16T23:38:14.126Z,4.85
2018-07-16T23:40:43.099Z,4.70
2018-07-16T23:43:12.044Z,5.50
2018-07-16T23:45:40.984Z,5.08
2018-07-16T23:48:09.962Z,5.25
2018-07-16T23:50:39.318Z,5.53
2018-07-16T23:53:08.430Z,5.30
2018-07-16T23:55:37.440Z,5.03
2018-07-16T23:58:06.650Z,6.30
